sensor_id;sensor_type;location;lat;lon;timestamp;P1;durP1;ratioP1;P2;durP2;ratioP2
18818;SDS011;9537;45.594;9.294;2022-08-21T00:00:27;1.52;;;1.10;;
18818;SDS011;9537;45.594;9.294;2022-08-21T00:01:30;4.03;;;1.23;;
18818;SDS011;9537;45.594;9.294;2022-08-21T00:02:32;3.58;;;1.10;;
18818;SDS011;9537;45.594;9.294;2022-08-21T00:03:34;2.35;;;1.35;;
18818;SDS011;9537;45.594;9.294;2022-08-21T00:04:36;1.17;;;1.05;;
18818;SDS011;9537;45.594;9.294;2022-08-21T00:05:39;1.35;;;1.00;;
18818;SDS011;9537;45.594;9.294;2022-08-21T00:06:42;1.30;;;1.10;;
18818;SDS011;9537;45.594;9.294;2022-08-21T00:07:43;3.92;;;1.02;;
18818;SDS011;9537;45.594;9.294;2022-08-21T00:08:44;1.85;;;1.02;;
18818;SDS011;9537;45.594;9.294;2022-08-21T00:09:47;2.10;;;0.90;;
18818;SDS011;9537;45.594;9.294;2022-08-21T00:10:48;2.25;;;1.13;;
18818;SDS011;9537;45.594;9.294;2022-08-21T00:11:50;1.23;;;1.00;;
18818;SDS011;9537;45.594;9.294;2022-08-21T00:12:51;2.65;;;1.10;;
18818;SDS011;9537;45.594;9.294;2022-08-21T00:13:54;1.20;;;1.10;;
18818;SDS011;9537;45.594;9.294;2022-08-21T00:14:56;1.52;;;1.00;;
18818;SDS011;9537;45.594;9.294;2022-08-21T00:15:59;0.82;;;0.82;;
18818;SDS011;9537;45.594;9.294;2022-08-21T00:17:01;1.98;;;1.17;;
18818;SDS011;9537;45.594;9.294;2022-08-21T00:18:03;2.35;;;1.10;;
18818;SDS011;9537;45.594;9.294;2022-08-21T00:19:05;1.48;;;1.15;;
18818;SDS011;9537;45.594;9.294;2022-08-21T00:20:09;1.27;;;1.17;;
18818;SDS011;9537;45.594;9.294;2022-08-21T00:21:11;1.30;;;1.10;;
18818;SDS011;9537;45.594;9.294;2022-08-21T00:22:14;1.00;;;0.90;;
18818;SDS011;9537;45.594;9.294;2022-08-21T00:23:15;2.05;;;0.98;;
18818;SDS011;9537;45.594;9.294;2022-08-21T00:24:17;1.15;;;0.90;;
18818;SDS011;9537;45.594;9.294;2022-08-21T00:25:19;2.70;;;1.20;;
18818;SDS011;9537;45.594;9.294;2022-08-21T00:26:22;1.80;;;1.10;;
18818;SDS011;9537;45.594;9.294;2022-08-21T00:27:24;2.28;;;1.10;;
18818;SDS011;9537;45.594;9.294;2022-08-21T00:28:25;1.23;;;1.13;;
18818;SDS011;9537;45.594;9.294;2022-08-21T00:29:26;1.92;;;1.20;;
18818;SDS011;9537;45.594;9.294;2022-08-21T00:30:30;1.20;;;1.10;;
18818;SDS011;9537;45.594;9.294;2022-08-21T00:31:31;2.75;;;1.10;;
18818;SDS011;9537;45.594;9.294;2022-08-21T00:32:33;1.20;;;1.10;;
18818;SDS011;9537;45.594;9.294;2022-08-21T00:33:36;4.35;;;1.30;;
18818;SDS011;9537;45.594;9.294;2022-08-21T00:34:38;1.00;;;1.00;;
18818;SDS011;9537;45.594;9.294;2022-08-21T00:35:40;1.40;;;1.20;;
18818;SDS011;9537;45.594;9.294;2022-08-21T00:36:43;2.55;;;1.20;;
18818;SDS011;9537;45.594;9.294;2022-08-21T00:37:44;3.05;;;1.30;;
18818;SDS011;9537;45.594;9.294;2022-08-21T00:38:46;1.00;;;0.90;;
18818;SDS011;9537;45.594;9.294;2022-08-21T00:39:47;3.08;;;1.27;;
18818;SDS011;9537;45.594;9.294;2022-08-21T00:40:50;3.70;;;1.10;;
18818;SDS011;9537;45.594;9.294;2022-08-21T00:41:53;3.03;;;1.00;;
18818;SDS011;9537;45.594;9.294;2022-08-21T00:42:55;1.40;;;1.02;;
18818;SDS011;9537;45.594;9.294;2022-08-21T00:43:56;1.85;;;1.30;;
18818;SDS011;9537;45.594;9.294;2022-08-21T00:44:59;2.28;;;1.30;;
18818;SDS011;9537;45.594;9.294;2022-08-21T00:46:01;1.38;;;1.10;;
18818;SDS011;9537;45.594;9.294;2022-08-21T00:47:05;0.90;;;0.80;;
18818;SDS011;9537;45.594;9.294;2022-08-21T00:48:06;1.20;;;1.10;;
18818;SDS011;9537;45.594;9.294;2022-08-21T00:49:09;1.25;;;1.08;;
18818;SDS011;9537;45.594;9.294;2022-08-21T00:50:11;1.10;;;1.00;;
18818;SDS011;9537;45.594;9.294;2022-08-21T00:51:15;1.83;;;1.65;;
18818;SDS011;9537;45.594;9.294;2022-08-21T00:52:25;5.22;;;1.20;;
18818;SDS011;9537;45.594;9.294;2022-08-21T00:53:31;1.40;;;1.30;;
18818;SDS011;9537;45.594;9.294;2022-08-21T00:54:35;2.33;;;1.20;;
18818;SDS011;9537;45.594;9.294;2022-08-21T00:55:39;2.47;;;1.10;;
18818;SDS011;9537;45.594;9.294;2022-08-21T00:56:40;1.20;;;1.10;;
18818;SDS011;9537;45.594;9.294;2022-08-21T00:57:44;2.55;;;1.35;;
18818;SDS011;9537;45.594;9.294;2022-08-21T00:58:48;6.05;;;1.20;;
18818;SDS011;9537;45.594;9.294;2022-08-21T00:59:51;1.27;;;1.08;;
18818;SDS011;9537;45.594;9.294;2022-08-21T01:00:54;2.75;;;1.00;;
18818;SDS011;9537;45.594;9.294;2022-08-21T01:01:57;2.13;;;0.95;;
18818;SDS011;9537;45.594;9.294;2022-08-21T01:02:59;3.15;;;1.30;;
18818;SDS011;9537;45.594;9.294;2022-08-21T01:04:02;1.10;;;1.00;;
18818;SDS011;9537;45.594;9.294;2022-08-21T01:05:04;1.95;;;0.85;;
18818;SDS011;9537;45.594;9.294;2022-08-21T01:06:07;3.75;;;1.13;;
18818;SDS011;9537;45.594;9.294;2022-08-21T01:07:08;2.45;;;1.10;;
18818;SDS011;9537;45.594;9.294;2022-08-21T01:08:11;2.67;;;1.10;;
18818;SDS011;9537;45.594;9.294;2022-08-21T01:09:13;1.65;;;1.05;;
18818;SDS011;9537;45.594;9.294;2022-08-21T01:10:16;2.58;;;1.27;;
18818;SDS011;9537;45.594;9.294;2022-08-21T01:11:18;1.63;;;1.00;;
18818;SDS011;9537;45.594;9.294;2022-08-21T01:12:21;2.40;;;1.13;;
18818;SDS011;9537;45.594;9.294;2022-08-21T01:13:23;2.50;;;0.90;;
18818;SDS011;9537;45.594;9.294;2022-08-21T01:14:25;1.10;;;1.00;;
18818;SDS011;9537;45.594;9.294;2022-08-21T01:15:30;2.67;;;1.10;;
18818;SDS011;9537;45.594;9.294;2022-08-21T01:16:35;4.53;;;1.30;;
18818;SDS011;9537;45.594;9.294;2022-08-21T01:17:37;1.40;;;0.98;;
18818;SDS011;9537;45.594;9.294;2022-08-21T01:18:39;1.20;;;1.10;;
18818;SDS011;9537;45.594;9.294;2022-08-21T01:19:41;3.03;;;1.40;;
18818;SDS011;9537;45.594;9.294;2022-08-21T01:20:45;1.85;;;1.10;;
18818;SDS011;9537;45.594;9.294;2022-08-21T01:21:57;3.35;;;1.17;;
18818;SDS011;9537;45.594;9.294;2022-08-21T01:23:00;1.58;;;0.93;;
18818;SDS011;9537;45.594;9.294;2022-08-21T01:24:03;5.32;;;1.17;;
18818;SDS011;9537;45.594;9.294;2022-08-21T01:25:06;1.20;;;1.10;;
18818;SDS011;9537;45.594;9.294;2022-08-21T01:26:09;1.35;;;0.98;;
18818;SDS011;9537;45.594;9.294;2022-08-21T01:27:13;1.50;;;1.00;;
18818;SDS011;9537;45.594;9.294;2022-08-21T01:28:14;1.88;;;1.17;;
18818;SDS011;9537;45.594;9.294;2022-08-21T01:29:16;1.42;;;1.10;;
18818;SDS011;9537;45.594;9.294;2022-08-21T01:30:27;1.42;;;0.90;;
18818;SDS011;9537;45.594;9.294;2022-08-21T01:31:30;1.05;;;0.90;;
18818;SDS011;9537;45.594;9.294;2022-08-21T01:32:31;1.05;;;1.00;;
18818;SDS011;9537;45.594;9.294;2022-08-21T01:33:33;3.63;;;1.10;;
18818;SDS011;9537;45.594;9.294;2022-08-21T01:34:35;0.90;;;0.85;;
18818;SDS011;9537;45.594;9.294;2022-08-21T01:35:39;3.42;;;1.00;;
18818;SDS011;9537;45.594;9.294;2022-08-21T01:36:42;1.63;;;0.90;;
18818;SDS011;9537;45.594;9.294;2022-08-21T01:37:44;1.05;;;0.88;;
18818;SDS011;9537;45.594;9.294;2022-08-21T01:38:46;1.38;;;1.08;;
18818;SDS011;9537;45.594;9.294;2022-08-21T01:39:48;1.58;;;1.00;;
18818;SDS011;9537;45.594;9.294;2022-08-21T01:40:49;2.40;;;0.82;;
18818;SDS011;9537;45.594;9.294;2022-08-21T01:41:51;1.48;;;0.98;;
18818;SDS011;9537;45.594;9.294;2022-08-21T01:42:52;0.73;;;0.73;;
18818;SDS011;9537;45.594;9.294;2022-08-21T01:43:54;1.73;;;1.25;;
18818;SDS011;9537;45.594;9.294;2022-08-21T01:44:55;2.85;;;1.00;;
18818;SDS011;9537;45.594;9.294;2022-08-21T01:45:57;1.27;;;0.98;;
18818;SDS011;9537;45.594;9.294;2022-08-21T01:46:59;1.13;;;1.00;;
18818;SDS011;9537;45.594;9.294;2022-08-21T01:48:04;0.93;;;0.80;;
18818;SDS011;9537;45.594;9.294;2022-08-21T01:49:06;2.08;;;0.90;;
18818;SDS011;9537;45.594;9.294;2022-08-21T01:50:10;0.93;;;0.90;;
18818;SDS011;9537;45.594;9.294;2022-08-21T01:51:14;1.30;;;1.05;;
18818;SDS011;9537;45.594;9.294;2022-08-21T01:52:17;3.08;;;0.98;;
18818;SDS011;9537;45.594;9.294;2022-08-21T01:53:19;2.58;;;1.08;;
18818;SDS011;9537;45.594;9.294;2022-08-21T01:54:21;0.80;;;0.80;;
18818;SDS011;9537;45.594;9.294;2022-08-21T01:55:22;3.00;;;0.95;;
18818;SDS011;9537;45.594;9.294;2022-08-21T01:56:25;1.52;;;1.00;;
18818;SDS011;9537;45.594;9.294;2022-08-21T01:57:26;1.20;;;1.08;;
18818;SDS011;9537;45.594;9.294;2022-08-21T01:58:28;3.25;;;0.90;;
18818;SDS011;9537;45.594;9.294;2022-08-21T01:59:30;4.40;;;1.17;;
18818;SDS011;9537;45.594;9.294;2022-08-21T02:00:32;0.65;;;0.65;;
18818;SDS011;9537;45.594;9.294;2022-08-21T02:01:33;1.10;;;0.93;;
18818;SDS011;9537;45.594;9.294;2022-08-21T02:02:36;2.40;;;1.00;;
18818;SDS011;9537;45.594;9.294;2022-08-21T02:03:37;0.80;;;0.70;;
18818;SDS011;9537;45.594;9.294;2022-08-21T02:04:39;1.65;;;0.80;;
18818;SDS011;9537;45.594;9.294;2022-08-21T02:05:40;1.73;;;1.00;;
18818;SDS011;9537;45.594;9.294;2022-08-21T02:06:42;1.08;;;0.70;;
18818;SDS011;9537;45.594;9.294;2022-08-21T02:07:47;1.45;;;0.90;;
18818;SDS011;9537;45.594;9.294;2022-08-21T02:08:50;0.80;;;0.73;;
18818;SDS011;9537;45.594;9.294;2022-08-21T02:09:51;1.38;;;0.90;;
18818;SDS011;9537;45.594;9.294;2022-08-21T02:10:53;3.35;;;0.90;;
18818;SDS011;9537;45.594;9.294;2022-08-21T02:11:54;3.50;;;1.00;;
18818;SDS011;9537;45.594;9.294;2022-08-21T02:12:57;1.20;;;0.80;;
18818;SDS011;9537;45.594;9.294;2022-08-21T02:14:00;2.40;;;1.00;;
18818;SDS011;9537;45.594;9.294;2022-08-21T02:15:03;0.60;;;0.60;;
18818;SDS011;9537;45.594;9.294;2022-08-21T02:16:05;2.15;;;0.80;;
18818;SDS011;9537;45.594;9.294;2022-08-21T02:17:08;2.92;;;1.10;;
18818;SDS011;9537;45.594;9.294;2022-08-21T02:18:09;2.13;;;0.93;;
18818;SDS011;9537;45.594;9.294;2022-08-21T02:19:12;2.75;;;0.75;;
18818;SDS011;9537;45.594;9.294;2022-08-21T02:20:16;2.50;;;1.05;;
18818;SDS011;9537;45.594;9.294;2022-08-21T02:21:19;1.05;;;0.95;;
18818;SDS011;9537;45.594;9.294;2022-08-21T02:22:20;1.65;;;0.93;;
18818;SDS011;9537;45.594;9.294;2022-08-21T02:23:24;1.90;;;0.82;;
18818;SDS011;9537;45.594;9.294;2022-08-21T02:24:25;1.20;;;0.90;;
18818;SDS011;9537;45.594;9.294;2022-08-21T02:25:28;1.52;;;0.70;;
18818;SDS011;9537;45.594;9.294;2022-08-21T02:26:29;3.42;;;1.02;;
18818;SDS011;9537;45.594;9.294;2022-08-21T02:27:36;1.77;;;1.20;;
18818;SDS011;9537;45.594;9.294;2022-08-21T02:28:39;0.82;;;0.80;;
18818;SDS011;9537;45.594;9.294;2022-08-21T02:29:41;0.90;;;0.90;;
18818;SDS011;9537;45.594;9.294;2022-08-21T02:30:43;2.05;;;0.90;;
18818;SDS011;9537;45.594;9.294;2022-08-21T02:31:47;1.80;;;0.80;;
18818;SDS011;9537;45.594;9.294;2022-08-21T02:32:47;0.90;;;0.80;;
18818;SDS011;9537;45.594;9.294;2022-08-21T02:33:50;0.80;;;0.80;;
18818;SDS011;9537;45.594;9.294;2022-08-21T02:34:51;2.13;;;0.80;;
18818;SDS011;9537;45.594;9.294;2022-08-21T02:35:54;1.52;;;0.75;;
18818;SDS011;9537;45.594;9.294;2022-08-21T02:36:56;1.10;;;0.73;;
18818;SDS011;9537;45.594;9.294;2022-08-21T02:37:59;4.03;;;0.80;;
18818;SDS011;9537;45.594;9.294;2022-08-21T02:39:03;1.88;;;0.90;;
18818;SDS011;9537;45.594;9.294;2022-08-21T02:40:05;0.80;;;0.80;;
18818;SDS011;9537;45.594;9.294;2022-08-21T02:41:08;1.33;;;0.68;;
18818;SDS011;9537;45.594;9.294;2022-08-21T02:42:11;0.70;;;0.70;;
18818;SDS011;9537;45.594;9.294;2022-08-21T02:43:12;1.85;;;0.95;;
18818;SDS011;9537;45.594;9.294;2022-08-21T02:44:16;3.20;;;0.85;;
18818;SDS011;9537;45.594;9.294;2022-08-21T02:45:18;2.70;;;0.85;;
18818;SDS011;9537;45.594;9.294;2022-08-21T02:46:20;1.42;;;0.38;;
18818;SDS011;9537;45.594;9.294;2022-08-21T02:47:22;2.67;;;0.95;;
18818;SDS011;9537;45.594;9.294;2022-08-21T02:48:24;1.33;;;0.90;;
18818;SDS011;9537;45.594;9.294;2022-08-21T02:49:27;1.13;;;0.93;;
18818;SDS011;9537;45.594;9.294;2022-08-21T02:50:29;3.13;;;0.90;;
18818;SDS011;9537;45.594;9.294;2022-08-21T02:51:33;2.17;;;0.82;;
18818;SDS011;9537;45.594;9.294;2022-08-21T02:52:34;3.35;;;0.82;;
18818;SDS011;9537;45.594;9.294;2022-08-21T02:53:36;0.70;;;0.70;;
18818;SDS011;9537;45.594;9.294;2022-08-21T02:54:41;3.13;;;0.70;;
18818;SDS011;9537;45.594;9.294;2022-08-21T02:55:43;0.95;;;0.60;;
18818;SDS011;9537;45.594;9.294;2022-08-21T02:56:46;1.42;;;0.70;;
18818;SDS011;9537;45.594;9.294;2022-08-21T02:57:48;1.15;;;0.50;;
18818;SDS011;9537;45.594;9.294;2022-08-21T02:58:50;1.52;;;0.85;;
18818;SDS011;9537;45.594;9.294;2022-08-21T02:59:53;2.50;;;0.77;;
18818;SDS011;9537;45.594;9.294;2022-08-21T03:00:54;2.92;;;0.70;;
18818;SDS011;9537;45.594;9.294;2022-08-21T03:01:56;0.63;;;0.63;;
18818;SDS011;9537;45.594;9.294;2022-08-21T03:02:58;1.20;;;0.63;;
18818;SDS011;9537;45.594;9.294;2022-08-21T03:04:00;2.28;;;0.85;;
18818;SDS011;9537;45.594;9.294;2022-08-21T03:05:02;0.80;;;0.65;;
18818;SDS011;9537;45.594;9.294;2022-08-21T03:06:04;0.65;;;0.63;;
18818;SDS011;9537;45.594;9.294;2022-08-21T03:07:06;2.08;;;0.88;;
18818;SDS011;9537;45.594;9.294;2022-08-21T03:08:08;2.08;;;0.82;;
18818;SDS011;9537;45.594;9.294;2022-08-21T03:09:12;0.73;;;0.55;;
18818;SDS011;9537;45.594;9.294;2022-08-21T03:10:15;0.63;;;0.63;;
18818;SDS011;9537;45.594;9.294;2022-08-21T03:11:17;2.40;;;0.60;;
18818;SDS011;9537;45.594;9.294;2022-08-21T03:12:20;0.73;;;0.70;;
18818;SDS011;9537;45.594;9.294;2022-08-21T03:13:22;0.68;;;0.60;;
18818;SDS011;9537;45.594;9.294;2022-08-21T03:14:23;1.75;;;0.77;;
18818;SDS011;9537;45.594;9.294;2022-08-21T03:15:25;0.70;;;0.70;;
18818;SDS011;9537;45.594;9.294;2022-08-21T03:16:26;4.05;;;0.90;;
18818;SDS011;9537;45.594;9.294;2022-08-21T03:17:28;3.70;;;0.65;;
18818;SDS011;9537;45.594;9.294;2022-08-21T03:18:29;1.88;;;0.85;;
18818;SDS011;9537;45.594;9.294;2022-08-21T03:19:31;1.73;;;0.70;;
18818;SDS011;9537;45.594;9.294;2022-08-21T03:20:32;0.70;;;0.70;;
18818;SDS011;9537;45.594;9.294;2022-08-21T03:21:36;0.77;;;0.70;;
18818;SDS011;9537;45.594;9.294;2022-08-21T03:22:37;2.45;;;0.77;;
18818;SDS011;9537;45.594;9.294;2022-08-21T03:23:40;1.80;;;0.80;;
18818;SDS011;9537;45.594;9.294;2022-08-21T03:24:42;2.22;;;0.75;;
18818;SDS011;9537;45.594;9.294;2022-08-21T03:25:46;0.73;;;0.73;;
18818;SDS011;9537;45.594;9.294;2022-08-21T03:26:48;0.70;;;0.70;;
18818;SDS011;9537;45.594;9.294;2022-08-21T03:27:50;0.70;;;0.70;;
18818;SDS011;9537;45.594;9.294;2022-08-21T03:28:51;0.82;;;0.60;;
18818;SDS011;9537;45.594;9.294;2022-08-21T03:29:53;0.93;;;0.50;;
18818;SDS011;9537;45.594;9.294;2022-08-21T03:30:55;2.70;;;0.80;;
18818;SDS011;9537;45.594;9.294;2022-08-21T03:31:57;0.90;;;0.63;;
18818;SDS011;9537;45.594;9.294;2022-08-21T03:32:58;1.75;;;0.80;;
18818;SDS011;9537;45.594;9.294;2022-08-21T03:34:00;0.60;;;0.60;;
18818;SDS011;9537;45.594;9.294;2022-08-21T03:35:02;1.75;;;0.60;;
18818;SDS011;9537;45.594;9.294;2022-08-21T03:36:05;1.88;;;1.10;;
18818;SDS011;9537;45.594;9.294;2022-08-21T03:37:07;1.70;;;0.55;;
18818;SDS011;9537;45.594;9.294;2022-08-21T03:38:10;0.77;;;0.60;;
18818;SDS011;9537;45.594;9.294;2022-08-21T03:39:13;2.33;;;0.55;;
18818;SDS011;9537;45.594;9.294;2022-08-21T03:40:15;0.98;;;0.60;;
18818;SDS011;9537;45.594;9.294;2022-08-21T03:41:19;3.13;;;0.50;;
18818;SDS011;9537;45.594;9.294;2022-08-21T03:42:21;0.80;;;0.43;;
18818;SDS011;9537;45.594;9.294;2022-08-21T03:43:22;1.65;;;0.60;;
18818;SDS011;9537;45.594;9.294;2022-08-21T03:44:24;1.98;;;0.45;;
18818;SDS011;9537;45.594;9.294;2022-08-21T03:45:26;1.77;;;0.60;;
18818;SDS011;9537;45.594;9.294;2022-08-21T03:46:27;1.00;;;0.77;;
18818;SDS011;9537;45.594;9.294;2022-08-21T03:47:28;1.13;;;0.70;;
18818;SDS011;9537;45.594;9.294;2022-08-21T03:48:30;0.50;;;0.50;;
18818;SDS011;9537;45.594;9.294;2022-08-21T03:49:32;1.95;;;0.80;;
18818;SDS011;9537;45.594;9.294;2022-08-21T03:50:35;0.60;;;0.60;;
18818;SDS011;9537;45.594;9.294;2022-08-21T03:51:38;1.73;;;0.60;;
18818;SDS011;9537;45.594;9.294;2022-08-21T03:52:40;1.23;;;0.60;;
18818;SDS011;9537;45.594;9.294;2022-08-21T03:53:41;1.00;;;0.60;;
18818;SDS011;9537;45.594;9.294;2022-08-21T03:54:43;0.95;;;0.70;;
18818;SDS011;9537;45.594;9.294;2022-08-21T03:55:44;0.50;;;0.50;;
18818;SDS011;9537;45.594;9.294;2022-08-21T03:56:49;1.10;;;0.50;;
18818;SDS011;9537;45.594;9.294;2022-08-21T03:57:50;1.00;;;0.57;;
18818;SDS011;9537;45.594;9.294;2022-08-21T03:58:52;2.45;;;0.70;;
18818;SDS011;9537;45.594;9.294;2022-08-21T03:59:53;2.78;;;0.77;;
18818;SDS011;9537;45.594;9.294;2022-08-21T04:00:56;2.25;;;0.55;;
18818;SDS011;9537;45.594;9.294;2022-08-21T04:01:59;1.50;;;0.70;;
18818;SDS011;9537;45.594;9.294;2022-08-21T04:03:04;0.93;;;0.57;;
18818;SDS011;9537;45.594;9.294;2022-08-21T04:04:06;0.60;;;0.50;;
18818;SDS011;9537;45.594;9.294;2022-08-21T04:05:09;1.23;;;0.40;;
18818;SDS011;9537;45.594;9.294;2022-08-21T04:06:10;2.45;;;0.70;;
18818;SDS011;9537;45.594;9.294;2022-08-21T04:07:12;1.23;;;0.60;;
18818;SDS011;9537;45.594;9.294;2022-08-21T04:08:14;0.98;;;0.65;;
18818;SDS011;9537;45.594;9.294;2022-08-21T04:09:17;0.50;;;0.50;;
18818;SDS011;9537;45.594;9.294;2022-08-21T04:10:19;0.98;;;0.60;;
18818;SDS011;9537;45.594;9.294;2022-08-21T04:11:21;1.27;;;0.52;;
18818;SDS011;9537;45.594;9.294;2022-08-21T04:12:24;1.27;;;0.70;;
18818;SDS011;9537;45.594;9.294;2022-08-21T04:13:25;2.38;;;0.63;;
18818;SDS011;9537;45.594;9.294;2022-08-21T04:14:28;1.65;;;0.70;;
18818;SDS011;9537;45.594;9.294;2022-08-21T04:15:30;0.82;;;0.60;;
18818;SDS011;9537;45.594;9.294;2022-08-21T04:16:32;0.60;;;0.60;;
18818;SDS011;9537;45.594;9.294;2022-08-21T04:17:33;0.88;;;0.70;;
18818;SDS011;9537;45.594;9.294;2022-08-21T04:18:36;1.50;;;0.70;;
18818;SDS011;9537;45.594;9.294;2022-08-21T04:19:38;1.27;;;0.65;;
18818;SDS011;9537;45.594;9.294;2022-08-21T04:20:39;0.70;;;0.70;;
18818;SDS011;9537;45.594;9.294;2022-08-21T04:21:43;3.17;;;0.70;;
18818;SDS011;9537;45.594;9.294;2022-08-21T04:22:45;2.50;;;0.82;;
18818;SDS011;9537;45.594;9.294;2022-08-21T04:23:47;1.13;;;0.80;;
18818;SDS011;9537;45.594;9.294;2022-08-21T04:24:48;0.60;;;0.60;;
18818;SDS011;9537;45.594;9.294;2022-08-21T04:25:51;0.55;;;0.50;;
18818;SDS011;9537;45.594;9.294;2022-08-21T04:26:52;0.88;;;0.70;;
18818;SDS011;9537;45.594;9.294;2022-08-21T04:27:56;3.35;;;0.55;;
18818;SDS011;9537;45.594;9.294;2022-08-21T04:28:57;1.98;;;0.50;;
18818;SDS011;9537;45.594;9.294;2022-08-21T04:29:59;1.10;;;0.57;;
18818;SDS011;9537;45.594;9.294;2022-08-21T04:31:01;0.40;;;0.40;;
18818;SDS011;9537;45.594;9.294;2022-08-21T04:32:03;1.17;;;0.73;;
18818;SDS011;9537;45.594;9.294;2022-08-21T04:33:04;0.60;;;0.60;;
18818;SDS011;9537;45.594;9.294;2022-08-21T04:34:06;1.90;;;0.52;;
18818;SDS011;9537;45.594;9.294;2022-08-21T04:35:07;1.10;;;0.35;;
18818;SDS011;9537;45.594;9.294;2022-08-21T04:36:11;0.43;;;0.43;;
18818;SDS011;9537;45.594;9.294;2022-08-21T04:37:12;3.00;;;0.93;;
18818;SDS011;9537;45.594;9.294;2022-08-21T04:38:16;3.50;;;0.88;;
18818;SDS011;9537;45.594;9.294;2022-08-21T04:39:17;1.13;;;0.70;;
18818;SDS011;9537;45.594;9.294;2022-08-21T04:40:19;1.80;;;0.77;;
18818;SDS011;9537;45.594;9.294;2022-08-21T04:41:21;0.50;;;0.50;;
18818;SDS011;9537;45.594;9.294;2022-08-21T04:42:24;1.33;;;0.60;;
18818;SDS011;9537;45.594;9.294;2022-08-21T04:43:27;2.53;;;0.47;;
18818;SDS011;9537;45.594;9.294;2022-08-21T04:44:29;0.40;;;0.40;;
18818;SDS011;9537;45.594;9.294;2022-08-21T04:45:30;0.50;;;0.50;;
18818;SDS011;9537;45.594;9.294;2022-08-21T04:46:34;0.40;;;0.40;;
18818;SDS011;9537;45.594;9.294;2022-08-21T04:47:35;0.43;;;0.30;;
18818;SDS011;9537;45.594;9.294;2022-08-21T04:48:37;4.22;;;0.60;;
18818;SDS011;9537;45.594;9.294;2022-08-21T04:49:38;0.35;;;0.35;;
18818;SDS011;9537;45.594;9.294;2022-08-21T04:50:41;0.57;;;0.57;;
18818;SDS011;9537;45.594;9.294;2022-08-21T04:51:45;2.60;;;0.60;;
18818;SDS011;9537;45.594;9.294;2022-08-21T04:52:47;0.57;;;0.57;;
18818;SDS011;9537;45.594;9.294;2022-08-21T04:53:49;0.73;;;0.63;;
18818;SDS011;9537;45.594;9.294;2022-08-21T04:54:54;1.25;;;0.60;;
18818;SDS011;9537;45.594;9.294;2022-08-21T04:55:55;1.03;;;0.60;;
18818;SDS011;9537;45.594;9.294;2022-08-21T04:56:59;0.50;;;0.50;;
18818;SDS011;9537;45.594;9.294;2022-08-21T04:58:05;1.60;;;0.57;;
18818;SDS011;9537;45.594;9.294;2022-08-21T04:59:13;0.67;;;0.40;;
18818;SDS011;9537;45.594;9.294;2022-08-21T05:00:17;0.93;;;0.57;;
18818;SDS011;9537;45.594;9.294;2022-08-21T05:01:21;0.75;;;0.50;;
18818;SDS011;9537;45.594;9.294;2022-08-21T05:02:24;1.17;;;0.75;;
18818;SDS011;9537;45.594;9.294;2022-08-21T05:03:27;0.90;;;0.60;;
18818;SDS011;9537;45.594;9.294;2022-08-21T05:04:32;2.00;;;0.65;;
18818;SDS011;9537;45.594;9.294;2022-08-21T05:05:36;1.20;;;0.60;;
18818;SDS011;9537;45.594;9.294;2022-08-21T05:06:37;2.05;;;0.75;;
18818;SDS011;9537;45.594;9.294;2022-08-21T05:07:43;0.63;;;0.40;;
18818;SDS011;9537;45.594;9.294;2022-08-21T05:08:45;3.20;;;0.47;;
18818;SDS011;9537;45.594;9.294;2022-08-21T05:09:50;0.63;;;0.60;;
18818;SDS011;9537;45.594;9.294;2022-08-21T05:10:51;2.25;;;0.60;;
18818;SDS011;9537;45.594;9.294;2022-08-21T05:11:53;2.63;;;0.60;;
18818;SDS011;9537;45.594;9.294;2022-08-21T05:12:55;2.10;;;0.67;;
18818;SDS011;9537;45.594;9.294;2022-08-21T05:13:57;0.80;;;0.60;;
18818;SDS011;9537;45.594;9.294;2022-08-21T05:14:59;1.63;;;0.50;;
18818;SDS011;9537;45.594;9.294;2022-08-21T05:16:01;1.08;;;0.82;;
18818;SDS011;9537;45.594;9.294;2022-08-21T05:17:03;2.85;;;0.60;;
18818;SDS011;9537;45.594;9.294;2022-08-21T05:18:05;0.40;;;0.40;;
18818;SDS011;9537;45.594;9.294;2022-08-21T05:19:06;0.80;;;0.52;;
18818;SDS011;9537;45.594;9.294;2022-08-21T05:20:09;2.13;;;0.90;;
18818;SDS011;9537;45.594;9.294;2022-08-21T05:21:12;0.67;;;0.53;;
18818;SDS011;9537;45.594;9.294;2022-08-21T05:22:18;0.50;;;0.50;;
18818;SDS011;9537;45.594;9.294;2022-08-21T05:23:20;0.70;;;0.45;;
18818;SDS011;9537;45.594;9.294;2022-08-21T05:24:22;2.33;;;0.60;;
18818;SDS011;9537;45.594;9.294;2022-08-21T05:25:23;0.40;;;0.40;;
18818;SDS011;9537;45.594;9.294;2022-08-21T05:26:25;0.60;;;0.60;;
18818;SDS011;9537;45.594;9.294;2022-08-21T05:27:26;1.17;;;0.47;;
18818;SDS011;9537;45.594;9.294;2022-08-21T05:28:30;2.70;;;0.77;;
18818;SDS011;9537;45.594;9.294;2022-08-21T05:29:31;0.40;;;0.40;;
18818;SDS011;9537;45.594;9.294;2022-08-21T05:30:34;1.57;;;0.63;;
18818;SDS011;9537;45.594;9.294;2022-08-21T05:31:36;1.58;;;0.50;;
18818;SDS011;9537;45.594;9.294;2022-08-21T05:32:38;0.60;;;0.60;;
18818;SDS011;9537;45.594;9.294;2022-08-21T05:33:39;0.45;;;0.45;;
18818;SDS011;9537;45.594;9.294;2022-08-21T05:34:41;1.73;;;0.68;;
18818;SDS011;9537;45.594;9.294;2022-08-21T05:35:42;2.00;;;0.57;;
18818;SDS011;9537;45.594;9.294;2022-08-21T05:36:44;2.08;;;0.55;;
18818;SDS011;9537;45.594;9.294;2022-08-21T05:37:45;0.45;;;0.40;;
18818;SDS011;9537;45.594;9.294;2022-08-21T05:38:47;0.50;;;0.30;;
18818;SDS011;9537;45.594;9.294;2022-08-21T05:39:49;1.13;;;0.60;;
18818;SDS011;9537;45.594;9.294;2022-08-21T05:40:50;0.55;;;0.52;;
18818;SDS011;9537;45.594;9.294;2022-08-21T05:41:51;1.40;;;0.63;;
18818;SDS011;9537;45.594;9.294;2022-08-21T05:42:54;0.80;;;0.50;;
18818;SDS011;9537;45.594;9.294;2022-08-21T05:43:56;0.95;;;0.60;;
18818;SDS011;9537;45.594;9.294;2022-08-21T05:44:58;1.73;;;0.70;;
18818;SDS011;9537;45.594;9.294;2022-08-21T05:46:00;2.63;;;0.80;;
18818;SDS011;9537;45.594;9.294;2022-08-21T05:47:03;1.52;;;0.55;;
18818;SDS011;9537;45.594;9.294;2022-08-21T05:48:06;3.77;;;0.60;;
18818;SDS011;9537;45.594;9.294;2022-08-21T05:49:08;1.52;;;0.50;;
18818;SDS011;9537;45.594;9.294;2022-08-21T05:50:09;2.60;;;0.60;;
18818;SDS011;9537;45.594;9.294;2022-08-21T05:51:12;0.75;;;0.70;;
18818;SDS011;9537;45.594;9.294;2022-08-21T05:52:18;0.80;;;0.60;;
18818;SDS011;9537;45.594;9.294;2022-08-21T05:53:20;0.75;;;0.75;;
18818;SDS011;9537;45.594;9.294;2022-08-21T05:54:22;3.22;;;0.70;;
18818;SDS011;9537;45.594;9.294;2022-08-21T05:55:24;0.77;;;0.52;;
18818;SDS011;9537;45.594;9.294;2022-08-21T05:56:25;0.73;;;0.60;;
18818;SDS011;9537;45.594;9.294;2022-08-21T05:57:27;0.82;;;0.60;;
18818;SDS011;9537;45.594;9.294;2022-08-21T05:58:28;0.95;;;0.45;;
18818;SDS011;9537;45.594;9.294;2022-08-21T05:59:31;0.65;;;0.50;;
18818;SDS011;9537;45.594;9.294;2022-08-21T06:00:32;0.57;;;0.57;;
18818;SDS011;9537;45.594;9.294;2022-08-21T06:01:35;0.82;;;0.77;;
18818;SDS011;9537;45.594;9.294;2022-08-21T06:02:37;1.65;;;0.60;;
18818;SDS011;9537;45.594;9.294;2022-08-21T06:03:39;0.88;;;0.50;;
18818;SDS011;9537;45.594;9.294;2022-08-21T06:04:41;0.68;;;0.50;;
18818;SDS011;9537;45.594;9.294;2022-08-21T06:05:43;0.63;;;0.52;;
18818;SDS011;9537;45.594;9.294;2022-08-21T06:06:44;1.05;;;0.55;;
18818;SDS011;9537;45.594;9.294;2022-08-21T06:07:47;1.65;;;0.50;;
18818;SDS011;9537;45.594;9.294;2022-08-21T06:08:48;0.50;;;0.50;;
18818;SDS011;9537;45.594;9.294;2022-08-21T06:09:50;3.00;;;0.70;;
18818;SDS011;9537;45.594;9.294;2022-08-21T06:10:51;1.83;;;1.10;;
18818;SDS011;9537;45.594;9.294;2022-08-21T06:11:54;0.70;;;0.65;;
18818;SDS011;9537;45.594;9.294;2022-08-21T06:12:55;1.17;;;0.52;;
18818;SDS011;9537;45.594;9.294;2022-08-21T06:13:57;0.60;;;0.60;;
18818;SDS011;9537;45.594;9.294;2022-08-21T06:14:59;2.35;;;0.70;;
18818;SDS011;9537;45.594;9.294;2022-08-21T06:16:01;0.45;;;0.45;;
18818;SDS011;9537;45.594;9.294;2022-08-21T06:17:07;0.90;;;0.63;;
18818;SDS011;9537;45.594;9.294;2022-08-21T06:18:11;1.05;;;0.93;;
18818;SDS011;9537;45.594;9.294;2022-08-21T06:19:12;0.80;;;0.68;;
18818;SDS011;9537;45.594;9.294;2022-08-21T06:20:14;0.88;;;0.70;;
18818;SDS011;9537;45.594;9.294;2022-08-21T06:21:15;0.93;;;0.75;;